createdAt,value
2018-12-09T00:00:32.136Z,881.62
2018-12-09T00:01:32.111Z,881.68
2018-12-09T00:02:32.093Z,881.72
2018-12-09T00:03:32.078Z,881.68
2018-12-09T00:04:32.065Z,881.65
2018-12-09T00:05:32.045Z,881.59
2018-12-09T00:06:32.027Z,881.57
2018-12-09T00:07:32.008Z,881.54
2018-12-09T00:08:31.996Z,881.46
2018-12-09T00:09:31.982Z,881.47
2018-12-09T00:10:31.960Z,881.49
2018-12-09T00:11:31.947Z,881.48
2018-12-09T00:12:31.928Z,881.50
2018-12-09T00:13:31.974Z,881.53
2018-12-09T00:14:31.895Z,881.50
2018-12-09T00:15:31.881Z,881.41
2018-12-09T00:16:31.865Z,881.35
2018-12-09T00:17:31.841Z,881.26
2018-12-09T00:18:31.829Z,881.27
2018-12-09T00:19:31.809Z,881.30
2018-12-09T00:20:31.793Z,881.32
2018-12-09T00:21:31.776Z,881.38
2018-12-09T00:22:31.768Z,881.36
2018-12-09T00:23:31.745Z,881.44
2018-12-09T00:24:31.732Z,881.43
2018-12-09T00:25:31.713Z,881.42
2018-12-09T00:26:31.702Z,881.39
2018-12-09T00:27:31.678Z,881.36
2018-12-09T00:28:31.666Z,881.39
2018-12-09T00:29:31.647Z,881.44
2018-12-09T00:30:31.642Z,881.50
2018-12-09T00:31:31.617Z,881.51
2018-12-09T00:32:31.601Z,881.49
2018-12-09T00:33:31.589Z,881.49
2018-12-09T00:34:31.571Z,881.43
2018-12-09T00:35:31.547Z,881.40
2018-12-09T00:36:31.531Z,881.37
2018-12-09T00:37:31.514Z,881.40
2018-12-09T00:38:31.497Z,881.48
2018-12-09T00:39:31.480Z,881.53
2018-12-09T00:40:31.470Z,881.55
2018-12-09T00:41:31.450Z,881.47
2018-12-09T00:42:31.433Z,881.51
2018-12-09T00:43:31.424Z,881.50
2018-12-09T00:44:31.406Z,881.43
2018-12-09T00:45:31.382Z,881.37
2018-12-09T00:46:31.363Z,881.31
2018-12-09T00:47:31.349Z,881.30
2018-12-09T00:48:31.327Z,881.28
2018-12-09T00:49:31.320Z,881.30
2018-12-09T00:50:31.295Z,881.26
2018-12-09T00:51:31.290Z,881.23
2018-12-09T00:52:31.270Z,881.22
2018-12-09T00:53:31.250Z,881.17
2018-12-09T00:54:31.228Z,881.11
2018-12-09T00:55:31.215Z,881.07
2018-12-09T00:56:31.198Z,881.07
2018-12-09T00:57:31.183Z,881.08
2018-12-09T00:58:31.165Z,881.12
2018-12-09T00:59:31.150Z,881.08
2018-12-09T01:00:31.134Z,881.00
2018-12-09T01:01:31.120Z,880.90
2018-12-09T01:02:31.096Z,880.90
2018-12-09T01:03:31.079Z,880.87
2018-12-09T01:04:31.075Z,880.90
2018-12-09T01:05:31.049Z,880.78
2018-12-09T01:06:31.042Z,880.76
2018-12-09T01:07:31.019Z,880.74
2018-12-09T01:08:31.005Z,880.68
2018-12-09T01:09:30.986Z,880.71
2018-12-09T01:10:30.965Z,880.70
2018-12-09T01:11:31.032Z,880.63
2018-12-09T01:12:30.943Z,880.49
2018-12-09T01:13:30.916Z,880.42
2018-12-09T01:14:30.898Z,880.40
2018-12-09T01:15:30.886Z,880.42
2018-12-09T01:16:30.868Z,880.42
2018-12-09T01:17:30.852Z,880.44
2018-12-09T01:18:30.834Z,880.50
2018-12-09T01:19:30.817Z,880.54
2018-12-09T01:20:30.803Z,880.48
2018-12-09T01:21:30.783Z,880.43
2018-12-09T01:22:30.765Z,880.31
2018-12-09T01:23:30.743Z,880.24
2018-12-09T01:24:30.731Z,880.10
2018-12-09T01:25:30.713Z,880.00
2018-12-09T01:26:30.714Z,879.94
2018-12-09T01:27:30.680Z,879.90
2018-12-09T01:28:30.664Z,879.86
2018-12-09T01:29:30.648Z,879.89
2018-12-09T01:30:30.630Z,879.88
2018-12-09T01:31:30.613Z,879.84
2018-12-09T01:32:30.600Z,879.72
2018-12-09T01:33:30.578Z,879.66
2018-12-09T01:34:30.562Z,879.59
2018-12-09T01:35:30.549Z,879.54
2018-12-09T01:36:30.529Z,879.55
2018-12-09T01:37:30.510Z,879.67
2018-12-09T01:38:30.493Z,879.74
2018-12-09T01:39:30.479Z,879.67
2018-12-09T01:40:30.463Z,879.61
2018-12-09T01:41:30.447Z,879.51
2018-12-09T01:42:30.424Z,879.42
2018-12-09T01:43:30.412Z,879.37
2018-12-09T01:44:30.397Z,879.37
2018-12-09T01:45:30.378Z,879.36
2018-12-09T01:46:30.413Z,879.39
2018-12-09T01:47:30.347Z,879.44
2018-12-09T01:48:30.327Z,879.47
2018-12-09T01:49:30.307Z,879.36
2018-12-09T01:50:30.295Z,879.30
2018-12-09T01:51:30.271Z,879.19
2018-12-09T01:52:30.258Z,879.14
2018-12-09T01:53:30.242Z,879.10
2018-12-09T01:54:30.231Z,879.10
2018-12-09T01:55:30.212Z,879.17
2018-12-09T01:56:30.201Z,879.22
2018-12-09T01:57:30.173Z,879.25
2018-12-09T01:58:30.162Z,879.26
2018-12-09T01:59:30.145Z,879.28
2018-12-09T02:00:30.124Z,879.28
2018-12-09T02:01:30.106Z,879.28
2018-12-09T02:02:30.090Z,879.24
2018-12-09T02:03:30.076Z,879.26
2018-12-09T02:04:30.056Z,879.32
2018-12-09T02:05:30.044Z,879.34
2018-12-09T02:06:30.025Z,879.32
2018-12-09T02:07:30.005Z,879.25
2018-12-09T02:08:29.992Z,879.27
2018-12-09T02:09:29.973Z,879.33
2018-12-09T02:10:29.960Z,879.35
2018-12-09T02:11:29.939Z,879.24
2018-12-09T02:12:29.921Z,879.13
2018-12-09T02:13:29.900Z,879.03
2018-12-09T02:14:29.889Z,879.02
2018-12-09T02:15:29.870Z,879.01
2018-12-09T02:16:29.854Z,879.04
2018-12-09T02:17:29.834Z,879.07
2018-12-09T02:18:29.815Z,879.14
2018-12-09T02:19:29.800Z,879.13
2018-12-09T02:20:29.792Z,879.08
2018-12-09T02:21:29.772Z,879.06
2018-12-09T02:22:29.749Z,879.01
2018-12-09T02:23:29.733Z,878.99
2018-12-09T02:24:29.717Z,879.00
2018-12-09T02:25:29.701Z,879.02
2018-12-09T02:26:29.679Z,879.06
2018-12-09T02:27:29.666Z,879.02
2018-12-09T02:28:29.651Z,878.95
2018-12-09T02:29:29.637Z,878.90
2018-12-09T02:30:29.615Z,878.88
2018-12-09T02:31:29.602Z,878.89
2018-12-09T02:32:29.584Z,878.91
2018-12-09T02:33:29.570Z,878.91
2018-12-09T02:34:29.554Z,878.77
2018-12-09T02:35:29.533Z,878.65
2018-12-09T02:36:29.516Z,878.52
2018-12-09T02:37:29.497Z,878.44
2018-12-09T02:38:29.511Z,878.41
2018-12-09T02:39:29.464Z,878.43
2018-12-09T02:40:29.447Z,878.52
2018-12-09T02:41:29.433Z,878.52
2018-12-09T02:42:29.419Z,878.45
2018-12-09T02:43:29.399Z,878.36
2018-12-09T02:44:29.388Z,878.26
2018-12-09T02:45:29.365Z,878.09
2018-12-09T02:46:29.357Z,878.00
2018-12-09T02:47:29.491Z,877.96
2018-12-09T02:48:29.329Z,878.05
2018-12-09T02:49:29.300Z,877.98
2018-12-09T02:50:29.276Z,877.88
2018-12-09T02:51:29.264Z,877.85
2018-12-09T02:52:29.255Z,877.76
2018-12-09T02:53:29.228Z,877.66
2018-12-09T02:54:29.217Z,877.60
2018-12-09T02:55:29.199Z,877.63
2018-12-09T02:56:29.180Z,877.70
2018-12-09T02:57:29.176Z,877.67
2018-12-09T02:58:29.147Z,877.59
2018-12-09T02:59:29.131Z,877.48
2018-12-09T03:00:29.111Z,877.45
2018-12-09T03:01:29.096Z,877.43
2018-12-09T03:02:29.080Z,877.41
2018-12-09T03:03:29.064Z,877.45
2018-12-09T03:04:29.053Z,877.46
2018-12-09T03:05:29.030Z,877.42
2018-12-09T03:06:29.021Z,877.43
2018-12-09T03:07:29.001Z,877.44
2018-12-09T03:08:28.983Z,877.40
2018-12-09T03:09:28.964Z,877.41
2018-12-09T03:10:28.947Z,877.38
2018-12-09T03:11:28.930Z,877.20
2018-12-09T03:12:28.916Z,877.14
2018-12-09T03:13:28.894Z,877.03
2018-12-09T03:14:28.882Z,876.98
2018-12-09T03:15:28.864Z,876.98
2018-12-09T03:16:28.847Z,877.00
2018-12-09T03:17:28.830Z,876.95
2018-12-09T03:18:28.814Z,876.93
2018-12-09T03:19:28.793Z,876.92
2018-12-09T03:20:28.777Z,876.91
2018-12-09T03:21:28.761Z,876.91
2018-12-09T03:22:28.758Z,876.98
2018-12-09T03:23:28.726Z,876.94
2018-12-09T03:24:28.710Z,876.91
2018-12-09T03:25:28.692Z,876.96
2018-12-09T03:26:28.677Z,877.02
2018-12-09T03:27:28.660Z,877.07
2018-12-09T03:28:28.649Z,877.05
2018-12-09T03:29:28.627Z,876.99
2018-12-09T03:30:28.610Z,876.94
2018-12-09T03:31:28.598Z,876.99
2018-12-09T03:32:28.586Z,876.96
2018-12-09T03:33:28.560Z,876.98
2018-12-09T03:34:28.551Z,876.93
2018-12-09T03:35:28.538Z,876.85
2018-12-09T03:36:28.512Z,876.81
2018-12-09T03:37:28.496Z,876.79
2018-12-09T03:38:28.474Z,876.78
2018-12-09T03:39:28.464Z,876.75
2018-12-09T03:40:28.446Z,876.73
2018-12-09T03:41:28.428Z,876.76
2018-12-09T03:42:28.404Z,876.80
2018-12-09T03:43:28.396Z,876.76
2018-12-09T03:44:28.371Z,876.82
2018-12-09T03:45:28.361Z,876.92
2018-12-09T03:46:28.341Z,877.05
2018-12-09T03:47:28.325Z,877.07
2018-12-09T03:48:28.303Z,877.03
2018-12-09T03:49:28.290Z,877.04
2018-12-09T03:50:28.277Z,877.08
2018-12-09T03:51:28.258Z,877.09
2018-12-09T03:52:28.242Z,877.17
2018-12-09T03:53:28.228Z,877.09
2018-12-09T03:54:28.206Z,877.06
2018-12-09T03:55:28.194Z,877.05
2018-12-09T03:56:28.175Z,877.00
2018-12-09T03:57:28.154Z,877.01
2018-12-09T03:58:28.150Z,877.00
2018-12-09T03:59:28.125Z,877.00
2018-12-09T04:00:28.111Z,876.90
2018-12-09T04:01:28.088Z,876.82
2018-12-09T04:02:28.078Z,876.79
2018-12-09T04:03:28.060Z,876.73
2018-12-09T04:04:28.041Z,876.66
2018-12-09T04:05:28.028Z,876.60
2018-12-09T04:06:28.004Z,876.58
2018-12-09T04:07:28.003Z,876.60
2018-12-09T04:08:27.979Z,876.69
2018-12-09T04:09:27.955Z,876.64
2018-12-09T04:10:27.938Z,876.60
2018-12-09T04:11:27.930Z,876.57
2018-12-09T04:12:27.909Z,876.50
2018-12-09T04:13:27.887Z,876.44
2018-12-09T04:14:27.875Z,876.32
2018-12-09T04:15:27.856Z,876.33
2018-12-09T04:16:27.844Z,876.32
2018-12-09T04:17:27.824Z,876.39
2018-12-09T04:18:27.808Z,876.40
2018-12-09T04:19:27.791Z,876.48
2018-12-09T04:20:27.779Z,876.54
2018-12-09T04:21:27.759Z,876.57
2018-12-09T04:22:27.742Z,876.64
2018-12-09T04:23:27.719Z,876.70
2018-12-09T04:24:27.706Z,876.82
2018-12-09T04:25:27.689Z,877.03
2018-12-09T04:26:27.673Z,877.21
2018-12-09T04:27:27.656Z,877.39
2018-12-09T04:28:27.641Z,877.49
2018-12-09T04:29:27.619Z,877.61
2018-12-09T04:30:27.603Z,877.81
2018-12-09T04:31:27.597Z,877.99
2018-12-09T04:32:27.572Z,878.02
2018-12-09T04:33:27.566Z,878.08
2018-12-09T04:34:27.538Z,877.97
2018-12-09T04:35:27.523Z,877.83
2018-12-09T04:36:27.501Z,877.62
2018-12-09T04:37:27.497Z,877.57
2018-12-09T04:38:27.477Z,877.80
2018-12-09T04:39:27.454Z,877.97
2018-12-09T04:40:27.436Z,877.92
2018-12-09T04:41:27.420Z,877.81
2018-12-09T04:42:27.405Z,877.66
2018-12-09T04:43:27.388Z,877.54
2018-12-09T04:44:27.368Z,877.37
2018-12-09T04:45:27.350Z,877.26
2018-12-09T04:46:27.339Z,877.22
2018-12-09T04:47:27.319Z,877.30
2018-12-09T04:48:27.310Z,877.26
2018-12-09T04:49:27.284Z,877.19
2018-12-09T04:50:27.271Z,877.18
2018-12-09T04:51:27.250Z,877.22
2018-12-09T04:52:27.239Z,877.34
2018-12-09T04:53:27.215Z,877.38
2018-12-09T04:54:27.199Z,877.28
2018-12-09T04:55:27.185Z,877.17
2018-12-09T04:56:27.170Z,877.05
2018-12-09T04:57:27.151Z,876.97
2018-12-09T04:58:27.133Z,876.89
2018-12-09T04:59:27.118Z,876.78
2018-12-09T05:00:27.104Z,876.69
2018-12-09T05:01:27.086Z,876.63
2018-12-09T05:02:27.072Z,876.55
2018-12-09T05:03:27.054Z,876.60
2018-12-09T05:04:27.036Z,876.65
2018-12-09T05:05:27.007Z,876.69
2018-12-09T05:06:26.999Z,876.70
2018-12-09T05:07:26.986Z,876.80
2018-12-09T05:08:26.969Z,876.86
2018-12-09T05:09:26.950Z,877.01
2018-12-09T05:10:26.936Z,876.97
2018-12-09T05:11:26.918Z,876.94
2018-12-09T05:12:26.897Z,876.97
2018-12-09T05:13:26.884Z,877.06
2018-12-09T05:14:26.867Z,877.05
2018-12-09T05:15:26.852Z,877.02
2018-12-09T05:16:26.827Z,877.08
2018-12-09T05:17:26.823Z,877.19
2018-12-09T05:18:26.900Z,877.36
2018-12-09T05:19:26.779Z,877.45
2018-12-09T05:20:26.767Z,877.52
2018-12-09T05:21:26.754Z,877.49
2018-12-09T05:22:26.730Z,877.52
2018-12-09T05:23:26.731Z,877.59
2018-12-09T05:24:26.699Z,877.63
2018-12-09T05:25:26.689Z,877.69
2018-12-09T05:26:26.660Z,877.79
2018-12-09T05:27:26.646Z,877.84
2018-12-09T05:28:26.631Z,877.90
2018-12-09T05:29:26.614Z,877.93
2018-12-09T05:30:26.595Z,877.89
2018-12-09T05:31:26.582Z,877.90
2018-12-09T05:32:26.564Z,877.89
2018-12-09T05:33:26.542Z,877.82
2018-12-09T05:34:26.538Z,877.78
2018-12-09T05:35:26.513Z,877.76
2018-12-09T05:36:26.503Z,877.74
2018-12-09T05:37:26.480Z,877.74
2018-12-09T05:38:26.576Z,877.88
2018-12-09T05:39:26.445Z,877.97
2018-12-09T05:40:26.425Z,878.03
2018-12-09T05:41:26.412Z,878.15
2018-12-09T05:42:26.416Z,878.12
2018-12-09T05:43:26.385Z,878.06
2018-12-09T05:44:26.364Z,878.09
2018-12-09T05:45:26.342Z,878.08
2018-12-09T05:46:26.330Z,877.96
2018-12-09T05:47:26.323Z,878.03
2018-12-09T05:48:26.296Z,878.12
2018-12-09T05:49:26.280Z,878.17
2018-12-09T05:50:26.265Z,878.19
2018-12-09T05:51:26.250Z,878.19
2018-12-09T05:52:26.229Z,878.26
2018-12-09T05:53:26.209Z,878.32
2018-12-09T05:54:26.198Z,878.34
2018-12-09T05:55:26.177Z,878.34
2018-12-09T05:56:26.170Z,878.32
2018-12-09T05:57:26.147Z,878.25
2018-12-09T05:58:26.128Z,878.27
2018-12-09T05:59:26.109Z,878.29
2018-12-09T06:00:26.095Z,878.18
2018-12-09T06:01:26.084Z,878.15
2018-12-09T06:02:26.062Z,878.24
2018-12-09T06:03:26.105Z,878.31
2018-12-09T06:04:26.032Z,878.33
2018-12-09T06:05:26.013Z,878.25
2018-12-09T06:06:25.997Z,878.19
2018-12-09T06:07:25.979Z,878.16
2018-12-09T06:08:25.958Z,878.14
2018-12-09T06:09:25.949Z,878.08
2018-12-09T06:10:25.926Z,878.00
2018-12-09T06:11:25.911Z,878.00
2018-12-09T06:12:25.890Z,877.95
2018-12-09T06:13:25.876Z,877.96
2018-12-09T06:14:25.857Z,877.93
2018-12-09T06:15:25.844Z,877.89
2018-12-09T06:16:25.822Z,877.91
2018-12-09T06:17:25.807Z,877.92
2018-12-09T06:18:25.792Z,877.99
2018-12-09T06:19:25.774Z,877.98
2018-12-09T06:20:25.755Z,878.00
2018-12-09T06:21:25.739Z,877.98
2018-12-09T06:22:25.720Z,877.85
2018-12-09T06:23:25.707Z,877.82
2018-12-09T06:24:25.693Z,877.77
2018-12-09T06:25:25.675Z,877.81
2018-12-09T06:26:25.659Z,877.78
2018-12-09T06:27:25.641Z,877.72
2018-12-09T06:28:25.625Z,877.68
2018-12-09T06:29:25.608Z,877.57
2018-12-09T06:30:25.592Z,877.52
2018-12-09T06:31:25.568Z,877.55
2018-12-09T06:32:25.561Z,877.60
2018-12-09T06:33:25.543Z,877.64
2018-12-09T06:34:25.519Z,877.68
2018-12-09T06:35:25.511Z,877.69
2018-12-09T06:36:25.488Z,877.64
2018-12-09T06:37:25.471Z,877.58
2018-12-09T06:38:25.538Z,877.59
2018-12-09T06:39:25.434Z,877.56
2018-12-09T06:40:25.420Z,877.49
2018-12-09T06:41:25.401Z,877.47
2018-12-09T06:42:25.386Z,877.42
2018-12-09T06:43:25.373Z,877.41
2018-12-09T06:44:25.351Z,877.41
2018-12-09T06:45:25.337Z,877.41
2018-12-09T06:46:25.317Z,877.42
2018-12-09T06:47:25.300Z,877.39
2018-12-09T06:48:25.294Z,877.33
2018-12-09T06:49:25.269Z,877.32
2018-12-09T06:50:25.262Z,877.31
2018-12-09T06:51:25.235Z,877.29
2018-12-09T06:52:25.214Z,877.29
2018-12-09T06:53:25.204Z,877.28
2018-12-09T06:54:25.188Z,877.28
2018-12-09T06:55:25.172Z,877.33
2018-12-09T06:56:25.154Z,877.33
2018-12-09T06:57:25.131Z,877.33
2018-12-09T06:58:25.116Z,877.36
2018-12-09T06:59:25.100Z,877.36
2018-12-09T07:00:25.080Z,877.39
2018-12-09T07:01:25.070Z,877.33
2018-12-09T07:02:25.044Z,877.32
2018-12-09T07:03:25.038Z,877.29
2018-12-09T07:04:25.021Z,877.33
2018-12-09T07:05:25.001Z,877.39
2018-12-09T07:06:24.981Z,877.46
2018-12-09T07:07:24.962Z,877.50
2018-12-09T07:08:24.947Z,877.57
2018-12-09T07:09:24.930Z,877.69
2018-12-09T07:10:24.915Z,877.73
2018-12-09T07:11:24.893Z,877.80
2018-12-09T07:12:24.879Z,877.87
2018-12-09T07:13:24.862Z,877.86
2018-12-09T07:14:24.853Z,877.93
2018-12-09T07:15:24.830Z,877.95
2018-12-09T07:16:24.820Z,878.01
2018-12-09T07:17:24.796Z,878.13
2018-12-09T07:18:24.783Z,878.33
2018-12-09T07:19:24.760Z,878.37
2018-12-09T07:20:24.750Z,878.26
2018-12-09T07:21:24.727Z,878.01
2018-12-09T07:22:24.714Z,877.83
2018-12-09T07:23:24.694Z,877.75
2018-12-09T07:24:24.682Z,877.81
2018-12-09T07:25:24.659Z,877.73
2018-12-09T07:26:24.640Z,877.68
2018-12-09T07:27:24.629Z,877.78
2018-12-09T07:28:24.615Z,877.84
2018-12-09T07:29:24.596Z,877.79
2018-12-09T07:30:24.575Z,877.53
2018-12-09T07:31:24.558Z,877.29
2018-12-09T07:32:24.546Z,877.23
2018-12-09T07:33:24.527Z,877.28
2018-12-09T07:34:24.511Z,877.23
2018-12-09T07:35:24.494Z,877.18
2018-12-09T07:36:24.472Z,877.16
2018-12-09T07:37:24.460Z,877.13
2018-12-09T07:38:24.444Z,877.00
2018-12-09T07:39:24.428Z,876.91
2018-12-09T07:40:24.410Z,876.95
2018-12-09T07:41:24.397Z,877.04
2018-12-09T07:42:24.370Z,877.04
2018-12-09T07:43:24.364Z,876.98
2018-12-09T07:44:24.340Z,876.87
2018-12-09T07:45:24.328Z,876.90
2018-12-09T07:46:24.305Z,876.95
2018-12-09T07:47:24.294Z,877.12
2018-12-09T07:48:24.276Z,877.24
2018-12-09T07:49:24.266Z,877.31
2018-12-09T07:50:24.240Z,877.28
2018-12-09T07:51:24.221Z,877.27
2018-12-09T07:52:24.209Z,877.23
2018-12-09T07:53:24.191Z,877.23
2018-12-09T07:54:24.173Z,877.31
2018-12-09T07:55:24.159Z,877.30
2018-12-09T07:56:24.147Z,877.33
2018-12-09T07:57:24.125Z,877.34
2018-12-09T07:58:24.111Z,877.34
2018-12-09T07:59:24.104Z,877.35
2018-12-09T08:00:24.070Z,877.37
2018-12-09T08:01:24.058Z,877.35
2018-12-09T08:02:24.044Z,877.39
2018-12-09T08:03:24.026Z,877.40
2018-12-09T08:04:24.008Z,877.43
2018-12-09T08:05:23.992Z,877.50
2018-12-09T08:06:23.972Z,877.52
2018-12-09T08:07:23.955Z,877.60
2018-12-09T08:08:23.937Z,877.71
2018-12-09T08:09:23.925Z,877.86
2018-12-09T08:10:23.913Z,878.04
2018-12-09T08:11:23.887Z,878.13
2018-12-09T08:12:23.871Z,878.22
2018-12-09T08:13:23.855Z,878.33
2018-12-09T08:14:23.842Z,878.43
2018-12-09T08:15:23.842Z,878.55
2018-12-09T08:16:23.802Z,878.63
2018-12-09T08:17:23.786Z,878.76
2018-12-09T08:18:23.764Z,878.82
2018-12-09T08:19:23.753Z,878.88
2018-12-09T08:20:23.737Z,878.99
2018-12-09T08:21:23.720Z,879.07
2018-12-09T08:22:23.707Z,879.19
2018-12-09T08:23:23.762Z,879.16
2018-12-09T08:24:23.668Z,879.40
2018-12-09T08:25:23.668Z,879.45
2018-12-09T08:26:23.634Z,879.43
2018-12-09T08:27:23.616Z,879.83
2018-12-09T08:28:23.605Z,879.72
2018-12-09T08:29:23.584Z,879.77
2018-12-09T08:30:23.584Z,879.89
2018-12-09T08:31:23.544Z,880.02
2018-12-09T08:32:23.533Z,879.91
2018-12-09T08:33:23.521Z,879.93
2018-12-09T08:34:23.500Z,880.07
2018-12-09T08:35:23.483Z,880.25
2018-12-09T08:36:23.465Z,880.08
2018-12-09T08:37:23.451Z,880.19
2018-12-09T08:38:23.435Z,880.24
2018-12-09T08:39:23.414Z,880.13
2018-12-09T08:40:23.396Z,880.17
2018-12-09T08:41:23.392Z,880.16
2018-12-09T08:42:23.366Z,880.15
2018-12-09T08:43:23.363Z,880.15
2018-12-09T08:44:23.333Z,880.27
2018-12-09T08:45:23.313Z,879.99
2018-12-09T08:46:23.297Z,880.10
2018-12-09T08:47:23.283Z,880.16
2018-12-09T08:48:23.260Z,880.20
2018-12-09T08:49:23.243Z,880.20
2018-12-09T08:50:23.218Z,880.21
2018-12-09T08:51:23.211Z,880.14
2018-12-09T08:53:18.041Z,880.33
2018-12-09T08:54:17.979Z,880.28
2018-12-09T08:56:43.609Z,880.26
2018-12-09T08:57:43.556Z,880.34
2018-12-09T08:59:38.398Z,880.22
2018-12-09T09:00:38.361Z,880.29
2018-12-09T09:02:33.225Z,880.31
2018-12-09T09:03:33.190Z,880.32
2018-12-09T09:05:48.004Z,880.40
2018-12-09T09:06:47.950Z,880.41
2018-12-09T09:08:43.357Z,880.45
2018-12-09T09:09:43.322Z,880.44
2018-12-09T09:11:38.205Z,880.50
2018-12-09T09:12:38.144Z,880.57
2018-12-09T09:14:32.813Z,880.55
2018-12-09T09:15:32.785Z,880.54
2018-12-09T09:17:48.143Z,880.55
2018-12-09T09:18:48.092Z,880.56
2018-12-09T09:20:44.945Z,880.67
2018-12-09T09:21:44.879Z,880.66
2018-12-09T09:23:40.722Z,880.77
2018-12-09T09:24:40.686Z,880.84
2018-12-09T09:26:36.047Z,880.86
2018-12-09T09:27:36.012Z,880.92
2018-12-09T09:29:30.893Z,880.94
2018-12-09T09:30:30.838Z,880.96
2018-12-09T09:32:25.297Z,880.93
2018-12-09T09:33:25.286Z,880.85
2018-12-09T09:35:20.612Z,880.79
2018-12-09T09:36:20.580Z,880.81
2018-12-09T09:38:15.485Z,880.81
2018-12-09T09:39:15.435Z,880.81
2018-12-09T09:41:10.634Z,880.82
2018-12-09T09:42:10.602Z,880.75
2018-12-09T09:44:05.353Z,880.72
2018-12-09T09:45:05.323Z,880.69
2018-12-09T09:47:01.664Z,880.69
2018-12-09T09:48:01.630Z,880.66
2018-12-09T09:49:56.531Z,880.61
2018-12-09T09:50:56.449Z,880.59
2018-12-09T09:52:51.389Z,880.44
2018-12-09T09:53:51.279Z,880.45
2018-12-09T09:55:47.646Z,880.40
2018-12-09T09:56:47.604Z,880.36
2018-12-09T09:58:43.464Z,880.28
2018-12-09T09:59:43.427Z,880.25
2018-12-09T10:01:38.300Z,880.16
2018-12-09T10:02:38.244Z,880.15
2018-12-09T10:04:33.099Z,880.21
2018-12-09T10:05:33.065Z,880.14
2018-12-09T10:07:28.436Z,880.11
2018-12-09T10:08:28.387Z,880.13
2018-12-09T10:10:23.280Z,880.12
2018-12-09T10:11:23.224Z,880.12
2018-12-09T10:13:18.664Z,880.02
2018-12-09T10:14:18.050Z,880.02
2018-12-09T10:16:14.407Z,879.97
2018-12-09T10:17:14.376Z,879.89
2018-12-09T10:19:08.594Z,879.78
2018-12-09T10:20:08.509Z,879.78
2018-12-09T10:22:03.385Z,879.86
2018-12-09T10:23:03.336Z,879.88
2018-12-09T10:24:58.191Z,879.86
2018-12-09T10:25:58.156Z,879.85
2018-12-09T10:27:52.811Z,879.76
2018-12-09T10:28:52.759Z,879.77
2018-12-09T10:30:47.616Z,879.76
2018-12-09T10:31:47.587Z,879.75
2018-12-09T10:33:42.463Z,879.73
2018-12-09T10:34:42.403Z,879.65
2018-12-09T10:36:37.844Z,879.74
2018-12-09T10:37:37.239Z,879.83
2018-12-09T10:39:31.945Z,879.91
2018-12-09T10:40:31.917Z,879.91
2018-12-09T10:42:26.826Z,879.89
2018-12-09T10:43:26.751Z,879.80
2018-12-09T10:45:22.588Z,879.73
2018-12-09T10:46:22.562Z,879.71
2018-12-09T10:48:16.578Z,879.56
2018-12-09T10:49:16.515Z,879.53
2018-12-09T10:51:11.392Z,879.53
2018-12-09T10:52:11.335Z,879.47
2018-12-09T10:54:06.215Z,879.48
2018-12-09T10:55:06.156Z,879.51
2018-12-09T10:57:01.540Z,879.53
2018-12-09T10:58:01.485Z,879.56
2018-12-09T10:59:56.861Z,879.58
2018-12-09T11:00:56.819Z,879.56
2018-12-09T11:02:52.681Z,879.57
2018-12-09T11:03:52.642Z,879.52
2018-12-09T11:05:47.627Z,879.38
2018-12-09T11:06:47.489Z,879.43
2018-12-09T11:08:42.335Z,879.40
2018-12-09T11:09:42.312Z,879.43
2018-12-09T11:11:37.680Z,879.44
2018-12-09T11:12:37.639Z,879.44
2018-12-09T11:14:32.523Z,879.39
2018-12-09T11:15:32.475Z,879.42
2018-12-09T11:17:27.340Z,879.38
2018-12-09T11:18:27.306Z,879.31
2018-12-09T11:20:22.154Z,879.29
2018-12-09T11:21:30.402Z,879.32
2018-12-09T11:23:18.093Z,879.29
2018-12-09T11:24:17.799Z,879.27
2018-12-09T11:26:12.797Z,879.24
2018-12-09T11:27:12.618Z,879.26
2018-12-09T11:29:07.569Z,879.42
2018-12-09T11:30:07.453Z,879.43
2018-12-09T11:32:03.901Z,879.37
2018-12-09T11:33:03.259Z,879.32
2018-12-09T11:34:59.726Z,879.39
2018-12-09T11:35:59.085Z,879.44
2018-12-09T11:37:55.544Z,879.47
2018-12-09T11:38:54.925Z,879.35
2018-12-09T11:40:49.779Z,879.38
2018-12-09T11:41:49.749Z,879.32
2018-12-09T11:43:45.105Z,879.34
2018-12-09T11:44:45.067Z,879.35
2018-12-09T11:46:40.095Z,879.29
2018-12-09T11:47:39.887Z,879.29
2018-12-09T11:49:53.749Z,879.31
2018-12-09T11:50:53.712Z,879.29
2018-12-09T11:52:48.564Z,879.24
2018-12-09T11:53:48.525Z,879.20
2018-12-09T11:55:43.873Z,879.22
2018-12-09T11:56:43.844Z,879.20
2018-12-09T11:58:39.234Z,879.21
2018-12-09T11:59:39.173Z,879.17
2018-12-09T12:01:34.322Z,879.15
2018-12-09T12:02:34.293Z,879.13
2018-12-09T12:04:30.174Z,879.10
2018-12-09T12:05:30.137Z,879.12
2018-12-09T12:07:25.011Z,879.10
2018-12-09T12:08:24.963Z,879.09
2018-12-09T12:10:20.805Z,879.17
2018-12-09T12:11:20.780Z,879.19
2018-12-09T12:13:15.643Z,879.17
2018-12-09T12:14:15.605Z,879.16
2018-12-09T12:16:10.967Z,879.22
2018-12-09T12:17:10.927Z,879.25
2018-12-09T12:19:05.815Z,879.24
2018-12-09T12:20:05.766Z,879.26
2018-12-09T12:22:00.627Z,879.29
2018-12-09T12:23:00.599Z,879.33
2018-12-09T12:24:55.461Z,879.37
2018-12-09T12:25:55.426Z,879.35
2018-12-09T12:27:50.462Z,879.40
2018-12-09T12:28:50.247Z,879.40
2018-12-09T12:30:45.114Z,879.35
2018-12-09T12:31:45.080Z,879.38
2018-12-09T12:33:39.959Z,879.44
2018-12-09T12:34:39.911Z,879.42
2018-12-09T12:36:34.696Z,879.39
2018-12-09T12:37:34.695Z,879.39
2018-12-09T12:39:30.498Z,879.43
2018-12-09T12:40:30.467Z,879.46
2018-12-09T12:42:25.930Z,879.53
2018-12-09T12:43:25.286Z,879.53
2018-12-09T12:44:25.279Z,879.50
2018-12-09T12:45:25.258Z,879.55
2018-12-09T12:46:25.263Z,879.53
2018-12-09T12:47:25.222Z,879.56
2018-12-09T12:48:25.203Z,879.58
2018-12-09T12:49:25.196Z,879.58
2018-12-09T12:50:25.176Z,879.55
2018-12-09T12:51:25.166Z,879.53
2018-12-09T12:52:25.151Z,879.54
2018-12-09T12:53:25.131Z,879.49
2018-12-09T12:54:25.109Z,879.51
2018-12-09T12:55:25.099Z,879.46
2018-12-09T12:56:25.080Z,879.44
2018-12-09T12:57:25.069Z,879.45
2018-12-09T12:58:25.048Z,879.44
2018-12-09T12:59:25.031Z,879.41
2018-12-09T13:00:25.018Z,879.38
2018-12-09T13:01:25.003Z,879.31
2018-12-09T13:02:24.986Z,879.28
2018-12-09T13:03:24.974Z,879.27
2018-12-09T13:04:24.959Z,879.24
2018-12-09T13:05:24.938Z,879.24
2018-12-09T13:06:24.926Z,879.24
2018-12-09T13:07:24.905Z,879.23
2018-12-09T13:08:24.897Z,879.28
2018-12-09T13:09:24.877Z,879.24
2018-12-09T13:10:24.863Z,879.19
2018-12-09T13:11:24.843Z,879.17
2018-12-09T13:12:24.823Z,879.20
2018-12-09T13:13:24.813Z,879.20
2018-12-09T13:14:24.797Z,879.14
2018-12-09T13:15:24.778Z,879.07
2018-12-09T13:16:24.766Z,879.08
2018-12-09T13:17:24.749Z,879.08
2018-12-09T13:18:24.744Z,879.10
2018-12-09T13:19:24.713Z,879.02
2018-12-09T13:20:24.697Z,878.91
2018-12-09T13:21:24.684Z,878.81
2018-12-09T13:22:24.669Z,878.84
2018-12-09T13:23:24.650Z,878.89
2018-12-09T13:24:24.636Z,878.89
2018-12-09T13:25:24.621Z,878.94
2018-12-09T13:26:24.599Z,878.99
2018-12-09T13:27:24.593Z,879.00
2018-12-09T13:28:24.575Z,878.97
2018-12-09T13:29:24.558Z,878.92
2018-12-09T13:30:24.535Z,878.89
2018-12-09T13:31:24.522Z,878.86
2018-12-09T13:32:24.529Z,878.89
2018-12-09T13:33:24.488Z,878.90
2018-12-09T13:34:24.482Z,878.91
2018-12-09T13:35:24.470Z,878.83
2018-12-09T13:36:24.454Z,878.84
2018-12-09T13:37:24.428Z,878.87
2018-12-09T13:38:24.405Z,878.90
2018-12-09T13:39:24.394Z,878.90
2018-12-09T13:40:24.380Z,878.96
2018-12-09T13:41:24.365Z,878.92
2018-12-09T13:42:24.354Z,878.84